Time;durP1;ratioP1;P1;durP2;ratioP2;P2;SDS_P1;SDS_P2;PMS_P1;PMS_P2;Temp;Humidity;BMP_temperature;BMP_pressure;BME280_temperature;BME280_humidity;BME280_pressure;Samples;Min_cycle;Max_cycle;Signal;HPM_P1;HPM_P2
2022/02/16 15:51:16;;;;;;;18.23;4.00;;;;;;;;;;5978346;22;20058;-93
2022/02/16 15:53:49;;;;;;;15.27;2.65;;;;;;;;;;5042448;28;20100;-94
2022/02/16 15:56:21;;;;;;;14.55;3.50;;;;;;;;;;5042129;28;20030;-93
2022/02/16 16:02:42;;;;;;;16.92;3.22;;;;;;;;;;5058940;28;20047;-94
2022/02/16 16:05:15;;;;;;;10.65;2.90;;;;;;;;;;5058740;28;20094;-95
2022/02/16 16:07:45;;;;;;;13.13;3.30;;;;;;;;;;5042106;28;20044;-94
2022/02/16 16:10:24;;;;;;;19.48;3.88;;;;;;;;;;5043363;28;20065;-94
2022/02/16 16:12:55;;;;;;;14.32;4.20;;;;;;;;;;5042453;28;20037;-94
2022/02/16 17:41:53;;;;;;;27.50;5.22;;;;;;;;;;5037395;28;20046;-94
2022/02/16 17:52:07;;;;;;;32.08;7.03;;;;;;;;;;4997970;28;20070;-94
2022/02/16 17:54:45;;;;;;;31.52;7.10;;;;;;;;;;4983676;28;20126;-93
2022/02/16 18:08:41;;;;;;;30.60;8.57;;;;;;;;;;5216773;23;20049;-95
2022/02/16 18:11:23;;;;;;;37.10;9.38;;;;;;;;;;5007120;28;20050;-94
2022/02/16 18:14:05;;;;;;;34.75;8.32;;;;;;;;;;5021767;28;20018;-93
2022/02/16 18:16:58;;;;;;;35.60;8.52;;;;;;;;;;5017535;28;20018;-93
2022/02/16 18:20:03;;;;;;;32.22;8.02;;;;;;;;;;5006217;28;20045;-94
2022/02/16 18:22:53;;;;;;;30.73;7.80;;;;;;;;;;5018799;28;20046;-93
2022/02/16 18:26:06;;;;;;;39.03;9.60;;;;;;;;;;5016143;28;20089;-93
2022/02/16 18:28:46;;;;;;;29.27;9.38;;;;;;;;;;5001358;28;20132;-92
2022/02/16 18:31:22;;;;;;;32.65;10.27;;;;;;;;;;5001543;28;20056;-94
2022/02/16 18:34:12;;;;;;;39.90;10.50;;;;;;;;;;4964380;28;20047;-92
2022/02/16 18:36:53;;;;;;;41.17;10.70;;;;;;;;;;4963568;28;20034;-92
2022/02/16 18:39:22;;;;;;;45.08;10.77;;;;;;;;;;4963140;28;20081;-92
2022/02/16 18:42:22;;;;;;;45.22;11.82;;;;;;;;;;4961936;28;20126;-94
2022/02/16 18:45:03;;;;;;;38.20;9.63;;;;;;;;;;4978160;28;20035;-94
2022/02/16 22:01:31;;;;;;;5.93;1.17;;;;;;;;;;5702049;23;19921;-94
2022/02/16 22:03:59;;;;;;;6.05;1.50;;;;;;;;;;5008273;28;20077;-94
2022/02/16 22:06:28;;;;;;;2.58;0.80;;;;;;;;;;5027287;28;20057;-94
2022/02/16 23:20:12;;;;;;;14.32;2.50;;;;;;;;;;5239577;22;20109;-93
2022/02/16 23:22:39;;;;;;;8.82;2.22;;;;;;;;;;5021730;28;20030;-94
2022/02/16 23:25:07;;;;;;;15.18;3.08;;;;;;;;;;5021627;28;20030;-94
2022/02/16 23:34:30;;;;;;;16.00;2.97;;;;;;;;;;5030929;28;20072;-94
2022/02/16 23:36:58;;;;;;;19.08;3.67;;;;;;;;;;5022424;28;20034;-94
2022/02/16 23:39:25;;;;;;;17.98;2.97;;;;;;;;;;5021668;28;20057;-94
2022/02/16 23:41:52;;;;;;;10.88;2.17;;;;;;;;;;5038472;28;20101;-94
2022/02/16 23:44:29;;;;;;;20.27;3.53;;;;;;;;;;5021485;28;20077;-92
2022/02/16 23:46:56;;;;;;;16.58;2.97;;;;;;;;;;5021544;28;20040;-94
2022/02/16 23:49:23;;;;;;;13.68;2.58;;;;;;;;;;5021145;28;20045;-92
2022/02/16 23:51:54;;;;;;;22.77;2.70;;;;;;;;;;5018499;28;20046;-94
2022/02/16 23:54:24;;;;;;;18.33;3.17;;;;;;;;;;5016967;28;20034;-94
2022/02/16 23:56:51;;;;;;;17.25;3.05;;;;;;;;;;5021728;28;20057;-93
2022/02/16 23:59:18;;;;;;;19.42;3.03;;;;;;;;;;5021995;28;20038;-93
